createdAt,value
2022-08-23T00:00:25.565Z,19.56
2022-08-23T00:02:54.212Z,19.54
2022-08-23T00:05:22.301Z,19.47
2022-08-23T00:07:49.812Z,19.38
2022-08-23T00:10:18.222Z,19.32
2022-08-23T00:12:48.042Z,19.23
2022-08-23T00:15:18.434Z,19.11
2022-08-23T00:17:46.180Z,19.01
2022-08-23T00:20:18.702Z,18.92
2022-08-23T00:22:46.239Z,18.84
2022-08-23T00:25:15.342Z,18.78
2022-08-23T00:27:42.990Z,18.73
2022-08-23T00:30:14.533Z,18.71
2022-08-23T00:32:43.713Z,18.69
2022-08-23T00:35:13.247Z,18.66
2022-08-23T00:37:54.625Z,18.60
2022-08-23T00:40:43.418Z,18.52
2022-08-23T00:43:32.036Z,18.51
2022-08-23T00:46:23.908Z,18.52
2022-08-23T00:48:51.916Z,18.55
2022-08-23T00:51:28.223Z,18.64
2022-08-23T00:53:59.184Z,18.65
2022-08-23T00:56:28.352Z,18.66
2022-08-23T00:58:57.976Z,18.64
2022-08-23T01:01:27.360Z,18.59
2022-08-23T01:04:04.342Z,18.52
2022-08-23T01:06:35.695Z,18.46
2022-08-23T01:09:07.110Z,18.39
2022-08-23T01:11:38.029Z,18.30
2022-08-23T01:14:10.534Z,18.24
2022-08-23T01:16:45.556Z,18.24
2022-08-23T01:19:20.484Z,18.27
2022-08-23T01:21:53.161Z,18.22
2022-08-23T01:24:42.578Z,18.17
2022-08-23T01:27:12.638Z,18.12
2022-08-23T01:29:41.485Z,18.06
2022-08-23T01:32:10.009Z,17.99
2022-08-23T01:34:38.201Z,17.89
2022-08-23T01:37:13.832Z,17.78
2022-08-23T01:39:42.723Z,17.70
2022-08-23T01:42:11.238Z,17.63
2022-08-23T01:44:39.069Z,17.58
2022-08-23T01:47:07.735Z,17.53
2022-08-23T01:49:35.922Z,17.48
2022-08-23T01:52:03.917Z,17.44
2022-08-23T01:54:31.449Z,17.40
2022-08-23T01:57:00.299Z,17.42
2022-08-23T01:59:27.941Z,17.41
2022-08-23T02:01:55.636Z,17.38
2022-08-23T02:04:23.294Z,17.36
2022-08-23T02:06:50.790Z,17.31
2022-08-23T02:09:18.294Z,17.24
2022-08-23T02:11:47.530Z,17.19
2022-08-23T02:14:19.339Z,17.15
2022-08-23T02:16:53.725Z,17.12
2022-08-23T02:19:30.749Z,17.07
2022-08-23T02:21:58.886Z,17.08
2022-08-23T02:24:26.843Z,17.09
2022-08-23T02:27:03.274Z,17.09
2022-08-23T02:29:32.164Z,17.09
2022-08-23T02:32:00.725Z,17.05
2022-08-23T02:34:35.423Z,16.99
2022-08-23T02:37:03.152Z,16.98
2022-08-23T02:39:31.206Z,17.04
2022-08-23T02:41:58.745Z,17.06
2022-08-23T02:44:26.264Z,17.04
2022-08-23T02:46:56.073Z,17.00
2022-08-23T02:49:23.634Z,16.94
2022-08-23T02:51:51.159Z,16.91
2022-08-23T02:54:18.685Z,16.87
2022-08-23T02:56:46.212Z,16.86
2022-08-23T02:59:13.819Z,16.84
2022-08-23T03:01:41.427Z,16.80
2022-08-23T03:04:11.566Z,16.78
2022-08-23T03:06:39.897Z,16.74
2022-08-23T03:09:08.747Z,16.68
2022-08-23T03:11:36.680Z,16.65
2022-08-23T03:14:05.175Z,16.62
2022-08-23T03:16:32.687Z,16.57
2022-08-23T03:19:02.181Z,16.52
2022-08-23T03:21:31.226Z,16.46
2022-08-23T03:24:00.173Z,16.43
2022-08-23T03:26:27.701Z,16.37
2022-08-23T03:28:55.307Z,16.35
2022-08-23T03:31:24.369Z,16.35
2022-08-23T03:33:52.525Z,16.36
2022-08-23T03:36:20.156Z,16.41
2022-08-23T03:38:57.443Z,16.50
2022-08-23T03:41:25.328Z,16.56
2022-08-23T03:43:52.847Z,16.58
2022-08-23T03:46:23.935Z,16.65
2022-08-23T03:48:52.230Z,16.68
2022-08-23T03:51:19.849Z,16.64
2022-08-23T03:53:49.384Z,16.53
2022-08-23T03:56:24.444Z,16.47
2022-08-23T03:58:52.513Z,16.40
2022-08-23T04:01:21.294Z,16.38
2022-08-23T04:03:51.224Z,16.38
2022-08-23T04:06:19.467Z,16.33
2022-08-23T04:08:47.243Z,16.28
2022-08-23T04:11:15.111Z,16.22
2022-08-23T04:13:44.085Z,16.20
2022-08-23T04:16:11.839Z,16.17
2022-08-23T04:18:39.524Z,16.19
2022-08-23T04:21:10.825Z,16.18
2022-08-23T04:23:39.554Z,16.14
2022-08-23T04:26:09.650Z,16.10
2022-08-23T04:28:38.314Z,16.09
2022-08-23T04:31:07.290Z,16.05
2022-08-23T04:33:35.684Z,16.00
2022-08-23T04:36:08.076Z,15.92
2022-08-23T04:38:35.646Z,15.85
2022-08-23T04:41:21.107Z,15.85
2022-08-23T04:43:49.367Z,15.91
2022-08-23T04:46:18.287Z,15.98
2022-08-23T04:48:46.785Z,16.00
2022-08-23T04:51:14.607Z,16.01
2022-08-23T04:53:42.904Z,16.00
2022-08-23T04:56:11.049Z,15.98
2022-08-23T04:58:39.548Z,15.97
2022-08-23T05:01:10.653Z,15.95
2022-08-23T05:03:39.922Z,15.95
2022-08-23T05:06:07.713Z,15.98
2022-08-23T05:08:36.167Z,15.96
2022-08-23T05:11:05.688Z,15.93
2022-08-23T05:13:34.760Z,15.93
2022-08-23T05:16:02.614Z,15.94
2022-08-23T05:18:30.121Z,15.94
2022-08-23T05:20:59.035Z,15.97
2022-08-23T05:23:31.839Z,16.01
2022-08-23T05:26:00.790Z,16.04
2022-08-23T05:28:30.304Z,16.08
2022-08-23T05:31:00.128Z,16.09
2022-08-23T05:33:30.773Z,16.14
2022-08-23T05:36:00.050Z,16.19
2022-08-23T05:38:27.818Z,16.23
2022-08-23T05:40:59.799Z,16.28
2022-08-23T05:43:27.638Z,16.32
2022-08-23T05:46:01.671Z,16.38
2022-08-23T05:48:31.947Z,16.44
2022-08-23T05:51:09.093Z,16.52
2022-08-23T05:53:37.514Z,16.58
2022-08-23T05:56:16.851Z,16.62
2022-08-23T05:58:45.158Z,16.63
2022-08-23T06:01:12.953Z,16.65
2022-08-23T06:03:40.499Z,16.67
2022-08-23T06:06:10.277Z,16.67
2022-08-23T06:08:40.105Z,16.67
2022-08-23T06:11:09.988Z,16.73
2022-08-23T06:13:41.065Z,16.78
2022-08-23T06:16:15.053Z,16.88
2022-08-23T06:18:44.369Z,16.97
2022-08-23T06:21:15.436Z,17.03
2022-08-23T06:23:44.007Z,17.05
2022-08-23T06:26:13.906Z,17.08
2022-08-23T06:28:50.315Z,17.11
2022-08-23T06:31:39.710Z,17.18
2022-08-23T06:34:07.472Z,17.27
2022-08-23T06:36:37.340Z,17.37
2022-08-23T06:39:05.839Z,17.48
2022-08-23T06:41:33.750Z,17.53
2022-08-23T06:44:01.420Z,17.59
2022-08-23T06:46:30.537Z,17.67
2022-08-23T06:48:59.580Z,17.75
2022-08-23T06:51:30.160Z,17.83
2022-08-23T06:54:02.993Z,17.92
2022-08-23T06:56:31.533Z,18.00
2022-08-23T06:58:59.491Z,18.10
2022-08-23T07:01:47.983Z,18.22
2022-08-23T07:04:19.895Z,18.35
2022-08-23T07:06:47.753Z,18.47
2022-08-23T07:09:18.464Z,18.59
2022-08-23T07:11:46.234Z,18.71
2022-08-23T07:14:17.667Z,18.83
2022-08-23T07:16:48.385Z,18.96
2022-08-23T07:19:16.259Z,19.06
2022-08-23T07:21:44.581Z,19.19
2022-08-23T07:24:18.695Z,19.32
2022-08-23T07:26:48.391Z,19.45
2022-08-23T07:29:17.454Z,19.60
2022-08-23T07:31:47.589Z,19.75
2022-08-23T07:34:15.897Z,19.91
2022-08-23T07:36:45.475Z,20.07
2022-08-23T07:39:14.598Z,20.21
2022-08-23T07:41:44.703Z,20.35
2022-08-23T07:44:13.160Z,20.50
2022-08-23T07:46:47.673Z,20.67
2022-08-23T07:49:16.311Z,20.82
2022-08-23T07:51:47.459Z,21.01
2022-08-23T07:54:15.543Z,21.20
2022-08-23T07:56:46.551Z,21.40
2022-08-23T07:59:23.379Z,21.59
2022-08-23T08:01:57.311Z,21.77
2022-08-23T08:04:24.973Z,21.96
2022-08-23T08:07:10.885Z,22.15
2022-08-23T08:09:42.578Z,22.34
2022-08-23T08:12:13.928Z,22.52
2022-08-23T08:17:33.251Z,22.93
2022-08-23T08:28:26.814Z,23.69
2022-08-23T08:31:29.490Z,23.91
2022-08-23T08:34:04.185Z,24.12
2022-08-23T08:37:00.136Z,24.31
2022-08-23T08:39:35.282Z,24.48
2022-08-23T08:42:35.927Z,24.59
2022-08-23T08:45:12.568Z,24.75
2022-08-23T08:47:48.940Z,24.89
2022-08-23T10:17:42.059Z,28.21
2022-08-23T10:20:22.128Z,28.22
2022-08-23T10:22:56.823Z,28.25
2022-08-23T10:25:34.254Z,28.30
2022-08-23T11:31:41.988Z,29.28
2022-08-23T14:13:36.732Z,28.55
2022-08-23T14:21:54.119Z,28.51
2022-08-23T14:24:50.195Z,28.50
2022-08-23T14:27:17.783Z,28.43
2022-08-23T14:29:46.635Z,28.32
2022-08-23T14:32:14.855Z,28.25
2022-08-23T14:34:42.667Z,28.25
2022-08-23T14:47:09.692Z,28.28
2022-08-23T14:52:25.544Z,28.20
2022-08-23T14:54:53.149Z,28.17
2022-08-23T14:57:20.823Z,28.15
2022-08-23T14:59:48.542Z,28.14
2022-08-23T15:02:22.188Z,28.15
2022-08-23T15:04:49.798Z,28.18
2022-08-23T15:07:19.165Z,28.16
2022-08-23T15:09:47.544Z,28.14
2022-08-23T15:15:02.760Z,28.15
2022-08-23T15:17:31.978Z,28.13
2022-08-23T15:20:00.043Z,28.12
2022-08-23T15:22:27.634Z,28.11
2022-08-23T15:24:55.259Z,28.10
2022-08-23T15:27:24.947Z,28.08
2022-08-23T15:29:52.553Z,28.05
2022-08-23T15:32:22.721Z,28.04
2022-08-23T15:34:52.124Z,28.01
2022-08-23T15:37:22.176Z,27.94
2022-08-23T15:39:50.725Z,27.88
2022-08-23T15:42:20.479Z,27.85
2022-08-23T15:44:48.595Z,27.82
2022-08-23T15:47:22.155Z,27.79
2022-08-23T15:49:50.258Z,27.74
2022-08-23T15:52:20.019Z,27.70
2022-08-23T15:54:48.580Z,27.70
2022-08-23T15:57:18.173Z,27.68
2022-08-23T15:59:46.347Z,27.66
2022-08-23T16:02:13.977Z,27.64
2022-08-23T16:04:41.853Z,27.61
2022-08-23T16:07:14.326Z,27.60
2022-08-23T16:09:43.556Z,27.57
2022-08-23T16:12:11.164Z,27.53
2022-08-23T16:14:38.812Z,27.51
2022-08-23T16:17:06.680Z,27.48
2022-08-23T16:19:34.479Z,27.46
2022-08-23T16:22:02.390Z,27.43
2022-08-23T16:24:30.036Z,27.42
2022-08-23T16:26:59.035Z,27.41
2022-08-23T16:29:31.815Z,27.39
2022-08-23T16:31:59.381Z,27.37
2022-08-23T16:34:27.761Z,27.34
2022-08-23T16:36:58.707Z,27.31
2022-08-23T16:39:27.059Z,27.27
2022-08-23T16:41:55.505Z,27.24
2022-08-23T16:44:24.418Z,27.22
2022-08-23T16:46:52.921Z,27.21
2022-08-23T16:49:20.646Z,27.19
2022-08-23T16:51:48.891Z,27.17
2022-08-23T16:54:19.054Z,27.16
2022-08-23T16:56:46.683Z,27.16
2022-08-23T16:59:14.586Z,27.14
2022-08-23T17:01:50.576Z,27.12
2022-08-23T17:04:19.512Z,27.10
2022-08-23T17:06:47.788Z,27.09
2022-08-23T17:09:15.334Z,27.06
2022-08-23T17:11:44.656Z,27.01
2022-08-23T17:14:12.638Z,26.94
2022-08-23T17:16:41.098Z,26.88
2022-08-23T17:19:10.092Z,26.83
2022-08-23T17:21:38.230Z,26.78
2022-08-23T17:24:06.325Z,26.74
2022-08-23T17:26:33.992Z,26.71
2022-08-23T17:29:01.925Z,26.68
2022-08-23T17:31:29.533Z,26.66
2022-08-23T17:34:02.932Z,26.63
2022-08-23T17:36:36.142Z,26.62
2022-08-23T17:39:09.473Z,26.61
2022-08-23T17:41:38.566Z,26.58
2022-08-23T17:44:08.708Z,26.57
2022-08-23T17:46:36.831Z,26.55
2022-08-23T17:49:05.868Z,26.52
2022-08-23T17:51:36.822Z,26.49
2022-08-23T17:54:04.663Z,26.47
2022-08-23T17:56:32.324Z,26.43
2022-08-23T17:59:00.211Z,26.39
2022-08-23T18:01:28.030Z,26.33
2022-08-23T18:03:55.823Z,26.29
2022-08-23T18:06:23.878Z,26.24
2022-08-23T18:08:52.921Z,26.14
2022-08-23T18:11:20.579Z,26.06
2022-08-23T18:13:48.666Z,25.98
2022-08-23T18:16:16.413Z,25.92
2022-08-23T18:18:44.134Z,25.85
2022-08-23T18:21:13.140Z,25.76
2022-08-23T18:23:41.242Z,25.70
2022-08-23T18:26:33.674Z,25.64
2022-08-23T18:29:01.063Z,25.59
2022-08-23T18:31:28.935Z,25.49
2022-08-23T18:34:00.304Z,25.45
2022-08-23T18:36:29.326Z,25.41
2022-08-23T18:38:57.823Z,25.36
2022-08-23T18:41:26.803Z,25.32
2022-08-23T18:43:54.489Z,25.28
2022-08-23T18:46:22.161Z,25.25
2022-08-23T18:48:53.414Z,25.24
2022-08-23T18:51:22.170Z,25.19
2022-08-23T18:53:49.931Z,25.16
2022-08-23T18:56:17.542Z,25.11
2022-08-23T18:58:47.834Z,25.09
2022-08-23T19:01:25.423Z,25.07
2022-08-23T19:03:54.237Z,25.03
2022-08-23T19:06:22.178Z,24.98
2022-08-23T19:08:49.822Z,24.95
2022-08-23T19:11:18.188Z,24.90
2022-08-23T19:13:48.649Z,24.83
2022-08-23T19:16:16.820Z,24.80
2022-08-23T19:18:47.111Z,24.76
2022-08-23T19:21:16.258Z,24.71
2022-08-23T19:23:43.803Z,24.64
2022-08-23T19:26:12.151Z,24.59
2022-08-23T19:28:40.230Z,24.54
2022-08-23T19:31:13.032Z,24.49
2022-08-23T19:33:47.828Z,24.43
2022-08-23T20:01:09.204Z,23.72
2022-08-23T20:11:44.005Z,23.46
2022-08-23T20:14:11.597Z,23.40
2022-08-23T20:16:40.834Z,23.37
2022-08-23T20:19:09.718Z,23.30
2022-08-23T20:21:38.068Z,23.24
2022-08-23T20:24:06.053Z,23.18
2022-08-23T20:26:35.973Z,23.09
2022-08-23T20:29:06.247Z,22.98
2022-08-23T20:31:36.974Z,22.92
2022-08-23T20:34:05.902Z,22.87
2022-08-23T20:36:33.567Z,22.82
2022-08-23T20:39:02.709Z,22.80
2022-08-23T20:41:32.738Z,22.72
2022-08-23T20:44:02.135Z,22.68
2022-08-23T20:46:31.206Z,22.63
2022-08-23T20:48:58.776Z,22.58
2022-08-23T20:51:26.927Z,22.54
2022-08-23T20:53:56.003Z,22.44
2022-08-23T20:56:23.945Z,22.37
2022-08-23T20:58:52.228Z,22.28
2022-08-23T21:01:19.823Z,22.20
2022-08-23T21:03:49.057Z,22.16
2022-08-23T21:06:20.060Z,22.14
2022-08-23T21:08:49.707Z,22.08
2022-08-23T21:11:21.598Z,22.01
2022-08-23T21:13:49.190Z,21.94
2022-08-23T21:16:18.079Z,21.88
2022-08-23T21:18:45.995Z,21.84
2022-08-23T21:21:21.000Z,21.77
2022-08-23T21:23:49.737Z,21.70
2022-08-23T21:26:17.317Z,21.66
2022-08-23T21:28:44.828Z,21.59
2022-08-23T21:31:14.428Z,21.54
2022-08-23T21:33:42.942Z,21.47
2022-08-23T21:36:11.174Z,21.42
2022-08-23T21:38:40.762Z,21.33
2022-08-23T21:41:10.862Z,21.27
2022-08-23T21:43:39.413Z,21.23
2022-08-23T21:46:07.529Z,21.19
2022-08-23T21:48:35.513Z,21.13
2022-08-23T21:51:03.230Z,21.10
2022-08-23T21:53:31.568Z,21.09
2022-08-23T21:56:00.468Z,21.07
2022-08-23T21:58:28.030Z,21.04
2022-08-23T22:00:55.519Z,21.03
2022-08-23T22:03:23.020Z,21.02
2022-08-23T22:05:50.645Z,21.00
2022-08-23T22:08:18.185Z,20.96
2022-08-23T22:10:56.685Z,20.95
2022-08-23T22:13:28.627Z,20.95
2022-08-23T22:15:56.425Z,20.92
2022-08-23T22:18:24.153Z,20.90
2022-08-23T22:20:51.658Z,20.93
2022-08-23T22:23:19.168Z,20.91
2022-08-23T22:25:47.308Z,20.88
2022-08-23T22:28:15.005Z,20.86
2022-08-23T22:30:44.130Z,20.85
2022-08-23T22:33:12.968Z,20.84
2022-08-23T22:35:40.504Z,20.85
2022-08-23T22:38:14.230Z,20.89
2022-08-23T22:40:48.755Z,20.92
2022-08-23T22:43:16.943Z,20.88
2022-08-23T22:45:54.461Z,20.78
2022-08-23T22:48:22.833Z,20.72
2022-08-23T22:50:50.671Z,20.67
2022-08-23T22:53:19.750Z,20.60
2022-08-23T22:55:51.646Z,20.53
2022-08-23T22:58:19.299Z,20.49
2022-08-23T23:00:46.895Z,20.49
2022-08-23T23:03:16.196Z,20.52
2022-08-23T23:05:43.974Z,20.54
2022-08-23T23:08:29.514Z,20.60
2022-08-23T23:10:58.338Z,20.62
2022-08-23T23:13:27.104Z,20.57
2022-08-23T23:15:55.313Z,20.52
2022-08-23T23:18:26.066Z,20.49
2022-08-23T23:20:57.767Z,20.50
2022-08-23T23:23:25.603Z,20.51
2022-08-23T23:25:53.439Z,20.54
2022-08-23T23:28:22.730Z,20.58
2022-08-23T23:30:53.112Z,20.60
2022-08-23T23:33:22.344Z,20.55
2022-08-23T23:35:52.603Z,20.47
2022-08-23T23:38:20.367Z,20.37
2022-08-23T23:40:47.928Z,20.32
2022-08-23T23:43:15.454Z,20.34
2022-08-23T23:45:43.137Z,20.36
2022-08-23T23:48:12.658Z,20.35
2022-08-23T23:50:45.426Z,20.31
2022-08-23T23:53:16.150Z,20.22
2022-08-23T23:55:44.460Z,20.10
2022-08-23T23:58:11.979Z,20.01
